sensor_id;sensor_type;location;lat;lon;timestamp;pressure;altitude;pressure_sealevel;temperature;humidity
55068;BME280;40965;52.368;9.712;2023-02-26T00:01:29;100872.78;;;-2.84;98.67
55068;BME280;40965;52.368;9.712;2023-02-26T00:03:59;100872.63;;;-2.87;98.82
55068;BME280;40965;52.368;9.712;2023-02-26T00:06:27;100869.91;;;-2.90;99.05
55068;BME280;40965;52.368;9.712;2023-02-26T00:08:54;100868.09;;;-2.93;99.92
55068;BME280;40965;52.368;9.712;2023-02-26T00:11:21;100878.47;;;-2.90;100.00
55068;BME280;40965;52.368;9.712;2023-02-26T00:13:48;100880.00;;;-2.93;99.89
55068;BME280;40965;52.368;9.712;2023-02-26T00:16:31;100886.16;;;-2.90;100.00
55068;BME280;40965;52.368;9.712;2023-02-26T00:19:03;100893.78;;;-2.91;100.00
55068;BME280;40965;52.368;9.712;2023-02-26T00:21:31;100893.84;;;-2.90;100.00
55068;BME280;40965;52.368;9.712;2023-02-26T00:23:59;100891.28;;;-2.90;100.00
55068;BME280;40965;52.368;9.712;2023-02-26T00:26:27;100898.47;;;-2.83;100.00
55068;BME280;40965;52.368;9.712;2023-02-26T00:28:55;100900.16;;;-2.83;100.00
55068;BME280;40965;52.368;9.712;2023-02-26T00:31:22;100900.81;;;-2.87;100.00
55068;BME280;40965;52.368;9.712;2023-02-26T00:33:50;100900.88;;;-2.86;100.00
55068;BME280;40965;52.368;9.712;2023-02-26T00:36:21;100910.56;;;-2.80;100.00
55068;BME280;40965;52.368;9.712;2023-02-26T00:42:12;100921.56;;;-2.46;100.00
55068;BME280;40965;52.368;9.712;2023-02-26T00:44:42;100922.38;;;-2.47;100.00
55068;BME280;40965;52.368;9.712;2023-02-26T00:47:19;100936.34;;;-2.59;100.00
55068;BME280;40965;52.368;9.712;2023-02-26T00:51:15;100943.66;;;-2.67;100.00
55068;BME280;40965;52.368;9.712;2023-02-26T00:53:51;100942.97;;;-2.80;100.00
55068;BME280;40965;52.368;9.712;2023-02-26T00:56:35;100941.06;;;-2.85;100.00
55068;BME280;40965;52.368;9.712;2023-02-26T00:59:02;100943.94;;;-2.78;100.00
55068;BME280;40965;52.368;9.712;2023-02-26T01:01:29;100939.28;;;-2.69;100.00
55068;BME280;40965;52.368;9.712;2023-02-26T01:03:56;100945.81;;;-2.58;100.00
55068;BME280;40965;52.368;9.712;2023-02-26T01:06:26;100940.34;;;-2.47;100.00
55068;BME280;40965;52.368;9.712;2023-02-26T01:09:02;100940.47;;;-2.44;100.00
55068;BME280;40965;52.368;9.712;2023-02-26T01:11:36;100944.50;;;-2.50;100.00
55068;BME280;40965;52.368;9.712;2023-02-26T01:14:33;100943.06;;;-2.61;100.00
55068;BME280;40965;52.368;9.712;2023-02-26T01:24:58;100949.53;;;-2.69;100.00
55068;BME280;40965;52.368;9.712;2023-02-26T01:27:29;100946.91;;;-2.53;100.00
55068;BME280;40965;52.368;9.712;2023-02-26T01:29:55;100942.22;;;-2.43;100.00
55068;BME280;40965;52.368;9.712;2023-02-26T01:35:27;100951.91;;;-2.38;100.00
55068;BME280;40965;52.368;9.712;2023-02-26T01:41:30;100970.16;;;-2.31;100.00
55068;BME280;40965;52.368;9.712;2023-02-26T01:44:13;100971.19;;;-2.28;100.00
55068;BME280;40965;52.368;9.712;2023-02-26T01:47:08;100976.59;;;-2.22;100.00
55068;BME280;40965;52.368;9.712;2023-02-26T01:49:43;100972.50;;;-2.18;100.00
55068;BME280;40965;52.368;9.712;2023-02-26T01:55:20;100980.91;;;-2.03;100.00
55068;BME280;40965;52.368;9.712;2023-02-26T01:57:51;100987.06;;;-1.99;100.00
55068;BME280;40965;52.368;9.712;2023-02-26T02:00:21;100985.44;;;-1.97;100.00
55068;BME280;40965;52.368;9.712;2023-02-26T02:02:48;100989.84;;;-1.94;100.00
55068;BME280;40965;52.368;9.712;2023-02-26T02:05:24;100987.50;;;-1.90;100.00
55068;BME280;40965;52.368;9.712;2023-02-26T02:07:57;101001.50;;;-1.83;100.00
55068;BME280;40965;52.368;9.712;2023-02-26T02:10:26;101007.78;;;-1.76;100.00
55068;BME280;40965;52.368;9.712;2023-02-26T02:15:41;101016.81;;;-1.67;100.00
55068;BME280;40965;52.368;9.712;2023-02-26T02:18:23;101020.25;;;-1.66;100.00
55068;BME280;40965;52.368;9.712;2023-02-26T02:24:13;101026.47;;;-1.61;100.00
55068;BME280;40965;52.368;9.712;2023-02-26T02:27:09;101028.13;;;-1.63;100.00
55068;BME280;40965;52.368;9.712;2023-02-26T02:33:04;101037.63;;;-1.60;100.00
55068;BME280;40965;52.368;9.712;2023-02-26T02:35:49;101032.59;;;-1.59;100.00
55068;BME280;40965;52.368;9.712;2023-02-26T02:38:24;101044.59;;;-1.58;100.00
55068;BME280;40965;52.368;9.712;2023-02-26T02:41:07;101042.91;;;-1.57;100.00
55068;BME280;40965;52.368;9.712;2023-02-26T02:43:40;101053.13;;;-1.59;99.88
55068;BME280;40965;52.368;9.712;2023-02-26T02:46:20;101050.44;;;-1.60;100.00
55068;BME280;40965;52.368;9.712;2023-02-26T02:49:01;101046.16;;;-1.61;100.00
55068;BME280;40965;52.368;9.712;2023-02-26T02:51:33;101056.63;;;-1.57;100.00
55068;BME280;40965;52.368;9.712;2023-02-26T02:54:13;101050.63;;;-1.57;100.00
55068;BME280;40965;52.368;9.712;2023-02-26T02:56:46;101055.47;;;-1.63;100.00
55068;BME280;40965;52.368;9.712;2023-02-26T02:59:20;101058.69;;;-1.68;100.00
55068;BME280;40965;52.368;9.712;2023-02-26T03:02:14;101061.03;;;-1.72;100.00
55068;BME280;40965;52.368;9.712;2023-02-26T03:04:45;101060.81;;;-1.77;100.00
55068;BME280;40965;52.368;9.712;2023-02-26T03:07:12;101066.53;;;-1.83;100.00
55068;BME280;40965;52.368;9.712;2023-02-26T03:09:39;101069.84;;;-1.85;100.00
55068;BME280;40965;52.368;9.712;2023-02-26T03:12:06;101064.47;;;-1.90;100.00
55068;BME280;40965;52.368;9.712;2023-02-26T03:14:33;101075.63;;;-1.89;100.00
55068;BME280;40965;52.368;9.712;2023-02-26T03:20:43;101082.81;;;-2.00;100.00
55068;BME280;40965;52.368;9.712;2023-02-26T03:23:16;101087.28;;;-1.96;100.00
55068;BME280;40965;52.368;9.712;2023-02-26T03:25:57;101086.72;;;-1.90;100.00
55068;BME280;40965;52.368;9.712;2023-02-26T03:31:37;101095.50;;;-1.85;100.00
55068;BME280;40965;52.368;9.712;2023-02-26T03:34:52;101101.66;;;-1.81;100.00
55068;BME280;40965;52.368;9.712;2023-02-26T03:37:54;101103.50;;;-1.79;100.00
55068;BME280;40965;52.368;9.712;2023-02-26T03:40:58;101107.81;;;-1.78;100.00
55068;BME280;40965;52.368;9.712;2023-02-26T03:46:51;101114.84;;;-1.74;100.00
55068;BME280;40965;52.368;9.712;2023-02-26T03:49:30;101115.03;;;-1.71;100.00
55068;BME280;40965;52.368;9.712;2023-02-26T03:52:00;101122.88;;;-1.68;100.00
55068;BME280;40965;52.368;9.712;2023-02-26T03:54:41;101128.97;;;-1.65;100.00
55068;BME280;40965;52.368;9.712;2023-02-26T03:57:10;101132.47;;;-1.63;100.00
55068;BME280;40965;52.368;9.712;2023-02-26T03:59:37;101137.84;;;-1.59;100.00
55068;BME280;40965;52.368;9.712;2023-02-26T04:02:12;101138.84;;;-1.55;100.00
55068;BME280;40965;52.368;9.712;2023-02-26T04:04:50;101138.22;;;-1.51;100.00
55068;BME280;40965;52.368;9.712;2023-02-26T04:07:19;101142.63;;;-1.48;100.00
55068;BME280;40965;52.368;9.712;2023-02-26T04:09:48;101151.13;;;-1.50;100.00
55068;BME280;40965;52.368;9.712;2023-02-26T04:12:21;101151.91;;;-1.51;100.00
55068;BME280;40965;52.368;9.712;2023-02-26T04:14:49;101155.44;;;-1.48;100.00
55068;BME280;40965;52.368;9.712;2023-02-26T04:17:16;101156.25;;;-1.50;100.00
55068;BME280;40965;52.368;9.712;2023-02-26T04:19:43;101159.69;;;-1.49;100.00
55068;BME280;40965;52.368;9.712;2023-02-26T04:22:10;101160.59;;;-1.48;100.00
55068;BME280;40965;52.368;9.712;2023-02-26T04:24:36;101165.00;;;-1.46;100.00
55068;BME280;40965;52.368;9.712;2023-02-26T04:27:03;101172.69;;;-1.46;100.00
55068;BME280;40965;52.368;9.712;2023-02-26T04:29:29;101170.03;;;-1.47;100.00
55068;BME280;40965;52.368;9.712;2023-02-26T04:31:56;101171.59;;;-1.51;100.00
55068;BME280;40965;52.368;9.712;2023-02-26T04:34:22;101176.00;;;-1.48;100.00
55068;BME280;40965;52.368;9.712;2023-02-26T04:36:49;101187.19;;;-1.46;99.70
55068;BME280;40965;52.368;9.712;2023-02-26T04:39:16;101187.19;;;-1.46;99.92
55068;BME280;40965;52.368;9.712;2023-02-26T04:41:43;101187.88;;;-1.51;100.00
55068;BME280;40965;52.368;9.712;2023-02-26T04:44:10;101187.94;;;-1.49;99.80
55068;BME280;40965;52.368;9.712;2023-02-26T04:46:36;101191.41;;;-1.48;99.28
55068;BME280;40965;52.368;9.712;2023-02-26T04:49:03;101199.16;;;-1.47;99.11
55068;BME280;40965;52.368;9.712;2023-02-26T04:51:29;101214.56;;;-1.47;99.10
55068;BME280;40965;52.368;9.712;2023-02-26T04:53:56;101210.31;;;-1.46;99.41
55068;BME280;40965;52.368;9.712;2023-02-26T04:56:22;101219.06;;;-1.43;98.75
55068;BME280;40965;52.368;9.712;2023-02-26T04:58:49;101212.22;;;-1.42;98.54
55068;BME280;40965;52.368;9.712;2023-02-26T05:01:15;101213.84;;;-1.44;98.02
55068;BME280;40965;52.368;9.712;2023-02-26T05:03:44;101219.06;;;-1.43;98.20
55068;BME280;40965;52.368;9.712;2023-02-26T05:06:14;101224.19;;;-1.43;97.91
55068;BME280;40965;52.368;9.712;2023-02-26T05:08:40;101227.78;;;-1.39;97.46
55068;BME280;40965;52.368;9.712;2023-02-26T05:11:09;101243.22;;;-1.39;96.64
55068;BME280;40965;52.368;9.712;2023-02-26T05:13:39;101237.16;;;-1.40;96.62
55068;BME280;40965;52.368;9.712;2023-02-26T05:16:06;101233.72;;;-1.40;96.45
55068;BME280;40965;52.368;9.712;2023-02-26T05:18:34;101234.59;;;-1.40;96.57
55068;BME280;40965;52.368;9.712;2023-02-26T05:21:02;101243.13;;;-1.41;96.09
55068;BME280;40965;52.368;9.712;2023-02-26T05:23:30;101242.03;;;-1.46;96.04
55068;BME280;40965;52.368;9.712;2023-02-26T05:25:57;101246.47;;;-1.60;95.45
55068;BME280;40965;52.368;9.712;2023-02-26T05:28:24;101249.78;;;-1.79;95.89
55068;BME280;40965;52.368;9.712;2023-02-26T05:30:51;101263.19;;;-2.01;96.55
55068;BME280;40965;52.368;9.712;2023-02-26T05:33:19;101270.72;;;-2.21;97.78
55068;BME280;40965;52.368;9.712;2023-02-26T05:35:46;101274.25;;;-2.35;98.57
55068;BME280;40965;52.368;9.712;2023-02-26T05:38:14;101274.13;;;-2.53;98.68
55068;BME280;40965;52.368;9.712;2023-02-26T05:40:41;101273.41;;;-2.67;99.62
55068;BME280;40965;52.368;9.712;2023-02-26T05:43:08;101289.22;;;-2.74;99.82
55068;BME280;40965;52.368;9.712;2023-02-26T05:45:35;101285.38;;;-2.83;100.00
55068;BME280;40965;52.368;9.712;2023-02-26T05:48:02;101290.13;;;-2.89;100.00
55068;BME280;40965;52.368;9.712;2023-02-26T05:50:29;101295.69;;;-2.96;100.00
55068;BME280;40965;52.368;9.712;2023-02-26T05:52:56;101293.34;;;-3.08;100.00
55068;BME280;40965;52.368;9.712;2023-02-26T05:55:23;101303.84;;;-3.18;100.00
55068;BME280;40965;52.368;9.712;2023-02-26T05:57:50;101299.91;;;-3.28;100.00
55068;BME280;40965;52.368;9.712;2023-02-26T06:00:17;101302.44;;;-3.28;100.00
55068;BME280;40965;52.368;9.712;2023-02-26T06:02:43;101309.06;;;-3.32;100.00
55068;BME280;40965;52.368;9.712;2023-02-26T06:05:10;101309.59;;;-3.37;100.00
55068;BME280;40965;52.368;9.712;2023-02-26T06:07:36;101313.50;;;-3.44;100.00
55068;BME280;40965;52.368;9.712;2023-02-26T06:10:04;101314.19;;;-3.46;100.00
55068;BME280;40965;52.368;9.712;2023-02-26T06:12:33;101323.28;;;-3.52;100.00
55068;BME280;40965;52.368;9.712;2023-02-26T06:15:00;101328.41;;;-3.52;100.00
55068;BME280;40965;52.368;9.712;2023-02-26T06:17:26;101333.59;;;-3.50;100.00
55068;BME280;40965;52.368;9.712;2023-02-26T06:19:53;101344.13;;;-3.45;100.00
55068;BME280;40965;52.368;9.712;2023-02-26T06:22:19;101338.09;;;-3.46;100.00
55068;BME280;40965;52.368;9.712;2023-02-26T06:24:46;101348.34;;;-3.46;100.00
55068;BME280;40965;52.368;9.712;2023-02-26T06:27:13;101347.47;;;-3.46;100.00
55068;BME280;40965;52.368;9.712;2023-02-26T06:29:39;101344.91;;;-3.46;100.00
55068;BME280;40965;52.368;9.712;2023-02-26T06:32:06;101348.16;;;-3.49;100.00
55068;BME280;40965;52.368;9.712;2023-02-26T06:34:32;101363.53;;;-3.49;100.00
55068;BME280;40965;52.368;9.712;2023-02-26T06:36:59;101361.13;;;-3.46;100.00
55068;BME280;40965;52.368;9.712;2023-02-26T06:39:25;101363.88;;;-3.43;100.00
55068;BME280;40965;52.368;9.712;2023-02-26T06:41:54;101368.75;;;-3.47;100.00
55068;BME280;40965;52.368;9.712;2023-02-26T06:44:20;101369.53;;;-3.49;100.00
55068;BME280;40965;52.368;9.712;2023-02-26T06:46:46;101369.44;;;-3.50;100.00
55068;BME280;40965;52.368;9.712;2023-02-26T06:49:13;101372.06;;;-3.49;100.00
55068;BME280;40965;52.368;9.712;2023-02-26T06:51:39;101382.06;;;-3.53;100.00
55068;BME280;40965;52.368;9.712;2023-02-26T06:54:06;101388.06;;;-3.53;100.00
55068;BME280;40965;52.368;9.712;2023-02-26T06:56:33;101395.03;;;-3.50;100.00
55068;BME280;40965;52.368;9.712;2023-02-26T06:59:00;101393.53;;;-3.46;100.00
55068;BME280;40965;52.368;9.712;2023-02-26T07:01:26;101399.53;;;-3.46;100.00
55068;BME280;40965;52.368;9.712;2023-02-26T07:03:53;101413.59;;;-3.39;100.00
55068;BME280;40965;52.368;9.712;2023-02-26T07:06:19;101419.50;;;-3.40;100.00
55068;BME280;40965;52.368;9.712;2023-02-26T07:08:46;101413.59;;;-3.39;100.00
55068;BME280;40965;52.368;9.712;2023-02-26T07:11:12;101418.69;;;-3.39;100.00
55068;BME280;40965;52.368;9.712;2023-02-26T07:13:39;101432.56;;;-3.36;100.00
55068;BME280;40965;52.368;9.712;2023-02-26T07:16:06;101441.50;;;-3.29;100.00
55068;BME280;40965;52.368;9.712;2023-02-26T07:18:36;101438.94;;;-3.29;100.00
55068;BME280;40965;52.368;9.712;2023-02-26T07:21:03;101441.59;;;-3.27;100.00
55068;BME280;40965;52.368;9.712;2023-02-26T07:23:30;101445.41;;;-3.21;100.00
55068;BME280;40965;52.368;9.712;2023-02-26T07:25:57;101452.53;;;-2.87;100.00
55068;BME280;40965;52.368;9.712;2023-02-26T07:28:27;101448.47;;;-2.07;100.00
55068;BME280;40965;52.368;9.712;2023-02-26T07:30:54;101445.09;;;-1.08;98.50
55068;BME280;40965;52.368;9.712;2023-02-26T07:33:21;101446.41;;;-0.11;93.04
55068;BME280;40965;52.368;9.712;2023-02-26T07:35:47;101465.53;;;0.12;88.18
55068;BME280;40965;52.368;9.712;2023-02-26T07:38:14;101468.47;;;-0.17;88.14
55068;BME280;40965;52.368;9.712;2023-02-26T07:40:40;101463.09;;;-0.39;89.19
55068;BME280;40965;52.368;9.712;2023-02-26T07:43:07;101468.81;;;-0.45;89.52
55068;BME280;40965;52.368;9.712;2023-02-26T07:45:33;101471.38;;;-0.63;89.92
55068;BME280;40965;52.368;9.712;2023-02-26T07:48:00;101480.47;;;-0.86;90.26
55068;BME280;40965;52.368;9.712;2023-02-26T07:50:26;101483.97;;;-1.02;91.22
55068;BME280;40965;52.368;9.712;2023-02-26T07:52:54;101486.53;;;-0.86;91.20
55068;BME280;40965;52.368;9.712;2023-02-26T07:55:20;101489.03;;;-0.87;90.70
55068;BME280;40965;52.368;9.712;2023-02-26T07:57:47;101501.00;;;-1.04;90.68
55068;BME280;40965;52.368;9.712;2023-02-26T08:00:14;101505.28;;;-1.21;91.40
55068;BME280;40965;52.368;9.712;2023-02-26T08:02:41;101513.09;;;-1.35;91.91
55068;BME280;40965;52.368;9.712;2023-02-26T08:05:08;101508.91;;;-1.49;92.87
55068;BME280;40965;52.368;9.712;2023-02-26T08:07:37;101513.41;;;-1.61;93.13
55068;BME280;40965;52.368;9.712;2023-02-26T08:10:04;101518.19;;;-1.68;92.66
55068;BME280;40965;52.368;9.712;2023-02-26T08:12:31;101519.00;;;-1.69;92.84
55068;BME280;40965;52.368;9.712;2023-02-26T08:15:07;101516.50;;;-1.67;92.46
55068;BME280;40965;52.368;9.712;2023-02-26T08:17:33;101523.25;;;-1.69;92.56
55068;BME280;40965;52.368;9.712;2023-02-26T08:20:00;101525.81;;;-1.69;92.69
55068;BME280;40965;52.368;9.712;2023-02-26T08:22:28;101527.66;;;-1.67;93.05
55068;BME280;40965;52.368;9.712;2023-02-26T08:24:55;101523.59;;;-1.63;91.73
55068;BME280;40965;52.368;9.712;2023-02-26T08:27:21;101529.13;;;-1.55;90.76
55068;BME280;40965;52.368;9.712;2023-02-26T08:29:48;101525.94;;;-1.51;90.87
55068;BME280;40965;52.368;9.712;2023-02-26T08:32:15;101545.06;;;-1.46;90.06
55068;BME280;40965;52.368;9.712;2023-02-26T08:34:44;101540.88;;;-1.44;89.58
55068;BME280;40965;52.368;9.712;2023-02-26T08:37:14;101548.84;;;-1.39;88.92
55068;BME280;40965;52.368;9.712;2023-02-26T08:39:40;101549.06;;;-1.35;88.63
55068;BME280;40965;52.368;9.712;2023-02-26T08:42:08;101556.06;;;-1.32;88.27
55068;BME280;40965;52.368;9.712;2023-02-26T08:44:35;101557.38;;;-1.24;86.96
55068;BME280;40965;52.368;9.712;2023-02-26T08:47:02;101563.16;;;-1.11;85.82
55068;BME280;40965;52.368;9.712;2023-02-26T08:49:28;101563.28;;;-1.08;85.68
55068;BME280;40965;52.368;9.712;2023-02-26T08:51:55;101565.66;;;-0.96;84.41
55068;BME280;40965;52.368;9.712;2023-02-26T08:54:21;101564.03;;;-0.94;82.89
55068;BME280;40965;52.368;9.712;2023-02-26T08:56:48;101567.59;;;-0.92;83.34
55068;BME280;40965;52.368;9.712;2023-02-26T08:59:20;101579.72;;;-0.90;83.57
55068;BME280;40965;52.368;9.712;2023-02-26T09:01:50;101585.50;;;-0.94;83.50
55068;BME280;40965;52.368;9.712;2023-02-26T09:04:16;101592.38;;;-0.93;84.70
55068;BME280;40965;52.368;9.712;2023-02-26T09:06:43;101589.03;;;-0.92;84.92
55068;BME280;40965;52.368;9.712;2023-02-26T09:09:09;101600.50;;;-0.85;84.36
55068;BME280;40965;52.368;9.712;2023-02-26T09:11:36;101599.78;;;-0.82;84.24
55068;BME280;40965;52.368;9.712;2023-02-26T09:14:05;101612.25;;;-0.74;83.05
55068;BME280;40965;52.368;9.712;2023-02-26T09:16:31;101608.22;;;-0.69;82.68
55068;BME280;40965;52.368;9.712;2023-02-26T09:19:01;101599.78;;;-0.66;83.04
55068;BME280;40965;52.368;9.712;2023-02-26T09:21:29;101598.28;;;-0.62;82.57
55068;BME280;40965;52.368;9.712;2023-02-26T09:23:55;101601.63;;;-0.63;81.30
55068;BME280;40965;52.368;9.712;2023-02-26T09:26:22;101602.75;;;-0.58;81.39
55068;BME280;40965;52.368;9.712;2023-02-26T09:28:48;101606.53;;;-0.52;81.11
55068;BME280;40965;52.368;9.712;2023-02-26T09:31:15;101603.38;;;-0.46;79.93
55068;BME280;40965;52.368;9.712;2023-02-26T09:33:42;101612.78;;;-0.46;80.68
55068;BME280;40965;52.368;9.712;2023-02-26T09:36:08;101606.34;;;-0.38;78.68
55068;BME280;40965;52.368;9.712;2023-02-26T09:38:35;101607.31;;;-0.36;79.87
55068;BME280;40965;52.368;9.712;2023-02-26T09:41:18;101612.69;;;-0.31;79.10
55068;BME280;40965;52.368;9.712;2023-02-26T09:44:16;101621.44;;;-0.28;78.59
55068;BME280;40965;52.368;9.712;2023-02-26T09:47:00;101614.78;;;-0.24;78.17
55068;BME280;40965;52.368;9.712;2023-02-26T09:50:55;101613.91;;;-0.07;73.77
55068;BME280;40965;52.368;9.712;2023-02-26T09:53:30;101616.13;;;0.04;74.30
55068;BME280;40965;52.368;9.712;2023-02-26T09:56:03;101619.44;;;0.01;74.17
55068;BME280;40965;52.368;9.712;2023-02-26T09:58:33;101623.06;;;0.05;70.53
55068;BME280;40965;52.368;9.712;2023-02-26T10:04:06;101620.41;;;0.03;72.09
55068;BME280;40965;52.368;9.712;2023-02-26T10:06:57;101636.00;;;0.06;73.23
55068;BME280;40965;52.368;9.712;2023-02-26T10:09:53;101640.59;;;0.12;70.69
55068;BME280;40965;52.368;9.712;2023-02-26T10:12:29;101645.28;;;0.21;70.46
55068;BME280;40965;52.368;9.712;2023-02-26T10:15:22;101638.69;;;0.26;69.93
55068;BME280;40965;52.368;9.712;2023-02-26T10:17:53;101640.38;;;0.25;68.85
55068;BME280;40965;52.368;9.712;2023-02-26T10:20:29;101651.06;;;0.33;68.92
55068;BME280;40965;52.368;9.712;2023-02-26T10:23:13;101651.78;;;0.30;70.50
55068;BME280;40965;52.368;9.712;2023-02-26T10:26:11;101661.38;;;0.33;68.02
55068;BME280;40965;52.368;9.712;2023-02-26T10:28:47;101664.31;;;0.41;67.67
55068;BME280;40965;52.368;9.712;2023-02-26T10:34:55;101656.13;;;0.49;67.79
55068;BME280;40965;52.368;9.712;2023-02-26T10:40:35;101657.47;;;0.59;66.85
55068;BME280;40965;52.368;9.712;2023-02-26T10:43:27;101664.41;;;0.78;65.62
55068;BME280;40965;52.368;9.712;2023-02-26T10:51:36;101666.88;;;0.95;63.98
55068;BME280;40965;52.368;9.712;2023-02-26T10:56:53;101662.41;;;1.10;63.16
55068;BME280;40965;52.368;9.712;2023-02-26T10:59:19;101666.16;;;1.17;61.26
55068;BME280;40965;52.368;9.712;2023-02-26T11:01:46;101670.31;;;1.13;61.47
55068;BME280;40965;52.368;9.712;2023-02-26T11:04:20;101671.88;;;1.10;62.01
55068;BME280;40965;52.368;9.712;2023-02-26T11:06:54;101674.25;;;1.25;60.53
55068;BME280;40965;52.368;9.712;2023-02-26T11:09:38;101665.84;;;1.48;60.00
55068;BME280;40965;52.368;9.712;2023-02-26T11:14:41;101682.22;;;1.69;57.12
55068;BME280;40965;52.368;9.712;2023-02-26T11:17:18;101679.75;;;1.72;56.52
55068;BME280;40965;52.368;9.712;2023-02-26T11:20:00;101684.59;;;1.64;55.83
55068;BME280;40965;52.368;9.712;2023-02-26T11:22:32;101685.22;;;1.58;56.44
55068;BME280;40965;52.368;9.712;2023-02-26T11:25:01;101678.56;;;1.63;57.98
55068;BME280;40965;52.368;9.712;2023-02-26T11:27:35;101684.47;;;1.80;56.71
55068;BME280;40965;52.368;9.712;2023-02-26T11:30:06;101686.25;;;2.03;52.52
55068;BME280;40965;52.368;9.712;2023-02-26T11:32:43;101680.41;;;2.07;53.32
55068;BME280;40965;52.368;9.712;2023-02-26T11:35:14;101678.63;;;2.06;53.89
55068;BME280;40965;52.368;9.712;2023-02-26T11:37:49;101681.75;;;2.18;52.81
55068;BME280;40965;52.368;9.712;2023-02-26T11:40:36;101681.50;;;2.33;51.43
55068;BME280;40965;52.368;9.712;2023-02-26T11:43:06;101687.13;;;2.44;51.36
55068;BME280;40965;52.368;9.712;2023-02-26T11:45:40;101683.13;;;2.52;49.86
55068;BME280;40965;52.368;9.712;2023-02-26T11:48:14;101684.66;;;2.47;50.10
55068;BME280;40965;52.368;9.712;2023-02-26T11:50:46;101692.53;;;2.50;50.68
55068;BME280;40965;52.368;9.712;2023-02-26T11:53:22;101686.03;;;2.60;50.71
55068;BME280;40965;52.368;9.712;2023-02-26T11:56:00;101693.44;;;2.73;51.46
55068;BME280;40965;52.368;9.712;2023-02-26T11:58:35;101690.53;;;2.87;50.54
55068;BME280;40965;52.368;9.712;2023-02-26T12:01:06;101687.38;;;2.94;50.04
55068;BME280;40965;52.368;9.712;2023-02-26T12:03:42;101692.84;;;3.02;51.03
55068;BME280;40965;52.368;9.712;2023-02-26T12:06:17;101678.53;;;3.11;50.23
55068;BME280;40965;52.368;9.712;2023-02-26T12:08:46;101696.50;;;3.07;49.55
55068;BME280;40965;52.368;9.712;2023-02-26T12:11:33;101686.56;;;2.95;49.65
55068;BME280;40965;52.368;9.712;2023-02-26T12:17:27;101681.97;;;3.10;50.67
55068;BME280;40965;52.368;9.712;2023-02-26T12:20:24;101673.06;;;3.26;50.07
55068;BME280;40965;52.368;9.712;2023-02-26T12:29:11;101683.84;;;3.61;47.07
55068;BME280;40965;52.368;9.712;2023-02-26T12:38:23;101683.28;;;3.70;47.77
55068;BME280;40965;52.368;9.712;2023-02-26T12:43:49;101683.91;;;3.63;46.67
55068;BME280;40965;52.368;9.712;2023-02-26T12:46:48;101689.75;;;3.57;46.59
55068;BME280;40965;52.368;9.712;2023-02-26T12:49:41;101686.44;;;3.61;47.12
55068;BME280;40965;52.368;9.712;2023-02-26T12:52:31;101689.91;;;3.86;46.98
55068;BME280;40965;52.368;9.712;2023-02-26T12:55:16;101676.50;;;4.24;46.02
55068;BME280;40965;52.368;9.712;2023-02-26T12:58:01;101677.19;;;4.45;46.00
55068;BME280;40965;52.368;9.712;2023-02-26T13:00:52;101685.53;;;4.62;46.49
55068;BME280;40965;52.368;9.712;2023-02-26T13:04:13;101686.91;;;4.51;45.76
55068;BME280;40965;52.368;9.712;2023-02-26T13:10:26;101684.03;;;4.16;46.77
55068;BME280;40965;52.368;9.712;2023-02-26T13:13:29;101672.19;;;3.98;46.86
55068;BME280;40965;52.368;9.712;2023-02-26T13:19:45;101680.81;;;3.73;47.63
55068;BME280;40965;52.368;9.712;2023-02-26T13:22:19;101671.94;;;3.67;47.53
55068;BME280;40965;52.368;9.712;2023-02-26T13:25:08;101670.50;;;3.51;47.20
55068;BME280;40965;52.368;9.712;2023-02-26T13:27:43;101678.22;;;3.49;48.32
55068;BME280;40965;52.368;9.712;2023-02-26T13:32:50;101673.69;;;3.68;47.98
55068;BME280;40965;52.368;9.712;2023-02-26T13:35:27;101676.91;;;3.60;46.55
55068;BME280;40965;52.368;9.712;2023-02-26T13:38:06;101681.75;;;3.51;46.34
55068;BME280;40965;52.368;9.712;2023-02-26T13:41:04;101675.28;;;3.40;45.07
55068;BME280;40965;52.368;9.712;2023-02-26T13:49:22;101671.53;;;3.31;43.84
55068;BME280;40965;52.368;9.712;2023-02-26T13:51:53;101675.91;;;3.57;44.55
55068;BME280;40965;52.368;9.712;2023-02-26T14:00:34;101653.75;;;9.60;33.70
55068;BME280;40965;52.368;9.712;2023-02-26T14:06:07;101651.75;;;12.73;29.76
55068;BME280;40965;52.368;9.712;2023-02-26T14:08:55;101647.06;;;13.65;27.86
55068;BME280;40965;52.368;9.712;2023-02-26T14:11:56;101645.69;;;14.34;27.00
55068;BME280;40965;52.368;9.712;2023-02-26T14:15:16;101640.91;;;13.74;26.49
55068;BME280;40965;52.368;9.712;2023-02-26T14:18:28;101652.69;;;12.32;26.80
55068;BME280;40965;52.368;9.712;2023-02-26T14:24:22;101651.81;;;12.44;26.66
55068;BME280;40965;52.368;9.712;2023-02-26T14:27:35;101651.78;;;12.72;27.12
55068;BME280;40965;52.368;9.712;2023-02-26T14:32:46;101653.25;;;13.58;25.39
55068;BME280;40965;52.368;9.712;2023-02-26T14:35:42;101658.50;;;13.58;25.38
55068;BME280;40965;52.368;9.712;2023-02-26T14:38:42;101663.03;;;11.58;26.94
55068;BME280;40965;52.368;9.712;2023-02-26T14:41:32;101663.50;;;9.03;29.78
55068;BME280;40965;52.368;9.712;2023-02-26T14:44:14;101672.47;;;7.20;32.17
55068;BME280;40965;52.368;9.712;2023-02-26T14:46:50;101676.53;;;5.99;34.83
55068;BME280;40965;52.368;9.712;2023-02-26T14:49:28;101674.56;;;5.29;36.39
55068;BME280;40965;52.368;9.712;2023-02-26T14:52:35;101680.00;;;4.79;38.19
55068;BME280;40965;52.368;9.712;2023-02-26T14:59:07;101685.66;;;4.14;40.85
55068;BME280;40965;52.368;9.712;2023-02-26T15:04:56;101688.88;;;3.81;42.13
55068;BME280;40965;52.368;9.712;2023-02-26T15:17:05;101681.03;;;3.55;44.58
55068;BME280;40965;52.368;9.712;2023-02-26T15:26:00;101699.19;;;3.33;45.64
55068;BME280;40965;52.368;9.712;2023-02-26T15:28:31;101691.19;;;3.26;45.71
55068;BME280;40965;52.368;9.712;2023-02-26T15:31:01;101692.00;;;3.25;45.75
55068;BME280;40965;52.368;9.712;2023-02-26T15:33:33;101700.94;;;3.56;45.39
55068;BME280;40965;52.368;9.712;2023-02-26T15:36:00;101700.38;;;3.65;45.36